sensor_id;sensor_type;location;lat;lon;timestamp;P1;durP1;ratioP1;P2;durP2;ratioP2
34134;SDS011;20410;55.578;12.968;2024-03-02T00:00:50;318.83;;;96.13;;
34134;SDS011;20410;55.578;12.968;2024-03-02T00:03:17;324.40;;;98.00;;
34134;SDS011;20410;55.578;12.968;2024-03-02T00:05:43;482.07;;;109.33;;
34134;SDS011;20410;55.578;12.968;2024-03-02T00:08:08;320.77;;;95.03;;
34134;SDS011;20410;55.578;12.968;2024-03-02T00:10:36;351.80;;;95.17;;
34134;SDS011;20410;55.578;12.968;2024-03-02T00:13:05;269.33;;;86.67;;
34134;SDS011;20410;55.578;12.968;2024-03-02T00:16:14;341.17;;;97.37;;
34134;SDS011;20410;55.578;12.968;2024-03-02T00:18:25;264.00;;;86.10;;
34134;SDS011;20410;55.578;12.968;2024-03-02T00:20:58;384.17;;;96.43;;
34134;SDS011;20410;55.578;12.968;2024-03-02T00:23:27;336.23;;;97.80;;
34134;SDS011;20410;55.578;12.968;2024-03-02T00:25:54;451.50;;;109.23;;
34134;SDS011;20410;55.578;12.968;2024-03-02T00:28:23;423.40;;;108.30;;
34134;SDS011;20410;55.578;12.968;2024-03-02T00:31:04;323.60;;;100.77;;
34134;SDS011;20410;55.578;12.968;2024-03-02T00:33:34;331.53;;;101.70;;
34134;SDS011;20410;55.578;12.968;2024-03-02T00:36:04;350.30;;;102.53;;
34134;SDS011;20410;55.578;12.968;2024-03-02T00:38:31;383.47;;;108.27;;
34134;SDS011;20410;55.578;12.968;2024-03-02T00:41:04;395.70;;;108.23;;
34134;SDS011;20410;55.578;12.968;2024-03-02T00:46:20;296.90;;;100.20;;
34134;SDS011;20410;55.578;12.968;2024-03-02T00:48:48;371.07;;;106.13;;
34134;SDS011;20410;55.578;12.968;2024-03-02T00:51:20;228.57;;;92.23;;
34134;SDS011;20410;55.578;12.968;2024-03-02T00:53:46;295.73;;;99.37;;
34134;SDS011;20410;55.578;12.968;2024-03-02T00:56:12;254.10;;;96.13;;
34134;SDS011;20410;55.578;12.968;2024-03-02T00:58:39;253.13;;;96.00;;
34134;SDS011;20410;55.578;12.968;2024-03-02T01:01:05;267.57;;;97.60;;
34134;SDS011;20410;55.578;12.968;2024-03-02T01:03:32;228.00;;;91.73;;
34134;SDS011;20410;55.578;12.968;2024-03-02T01:05:58;254.00;;;94.40;;
34134;SDS011;20410;55.578;12.968;2024-03-02T01:08:24;199.23;;;89.53;;
34134;SDS011;20410;55.578;12.968;2024-03-02T01:10:50;226.27;;;89.17;;
34134;SDS011;20410;55.578;12.968;2024-03-02T01:13:15;270.23;;;98.77;;
34134;SDS011;20410;55.578;12.968;2024-03-02T01:15:41;236.87;;;91.57;;
34134;SDS011;20410;55.578;12.968;2024-03-02T01:18:10;242.57;;;93.33;;
34134;SDS011;20410;55.578;12.968;2024-03-02T01:20:59;229.97;;;92.20;;
34134;SDS011;20410;55.578;12.968;2024-03-02T01:23:24;272.83;;;95.97;;
34134;SDS011;20410;55.578;12.968;2024-03-02T01:25:50;216.13;;;89.30;;
34134;SDS011;20410;55.578;12.968;2024-03-02T01:28:17;235.00;;;96.43;;
34134;SDS011;20410;55.578;12.968;2024-03-02T01:30:43;202.10;;;86.30;;
34134;SDS011;20410;55.578;12.968;2024-03-02T01:33:09;233.63;;;91.37;;
34134;SDS011;20410;55.578;12.968;2024-03-02T01:35:35;238.73;;;90.93;;
34134;SDS011;20410;55.578;12.968;2024-03-02T01:38:02;191.37;;;83.50;;
34134;SDS011;20410;55.578;12.968;2024-03-02T01:40:28;185.50;;;80.07;;
34134;SDS011;20410;55.578;12.968;2024-03-02T01:42:54;194.67;;;84.33;;
34134;SDS011;20410;55.578;12.968;2024-03-02T01:45:20;207.67;;;88.10;;
34134;SDS011;20410;55.578;12.968;2024-03-02T01:47:46;206.20;;;87.57;;
34134;SDS011;20410;55.578;12.968;2024-03-02T01:50:12;218.00;;;92.27;;
34134;SDS011;20410;55.578;12.968;2024-03-02T01:52:38;209.63;;;89.80;;
34134;SDS011;20410;55.578;12.968;2024-03-02T01:55:04;187.57;;;84.73;;
34134;SDS011;20410;55.578;12.968;2024-03-02T01:57:31;193.23;;;91.30;;
34134;SDS011;20410;55.578;12.968;2024-03-02T01:59:57;192.23;;;84.43;;
34134;SDS011;20410;55.578;12.968;2024-03-02T02:02:23;185.80;;;83.23;;
34134;SDS011;20410;55.578;12.968;2024-03-02T02:04:49;183.93;;;85.97;;
34134;SDS011;20410;55.578;12.968;2024-03-02T02:07:14;188.87;;;85.93;;
34134;SDS011;20410;55.578;12.968;2024-03-02T02:09:43;207.93;;;90.00;;
34134;SDS011;20410;55.578;12.968;2024-03-02T02:12:09;183.93;;;86.27;;
34134;SDS011;20410;55.578;12.968;2024-03-02T02:14:35;146.73;;;76.27;;
34134;SDS011;20410;55.578;12.968;2024-03-02T02:17:01;162.07;;;81.40;;
34134;SDS011;20410;55.578;12.968;2024-03-02T02:19:27;163.50;;;83.30;;
34134;SDS011;20410;55.578;12.968;2024-03-02T02:21:53;197.97;;;88.30;;
34134;SDS011;20410;55.578;12.968;2024-03-02T02:24:19;167.47;;;83.70;;
34134;SDS011;20410;55.578;12.968;2024-03-02T02:26:45;185.97;;;83.00;;
34134;SDS011;20410;55.578;12.968;2024-03-02T02:29:10;219.93;;;90.73;;
34134;SDS011;20410;55.578;12.968;2024-03-02T02:31:40;207.70;;;88.40;;
34134;SDS011;20410;55.578;12.968;2024-03-02T02:34:06;203.87;;;90.63;;
34134;SDS011;20410;55.578;12.968;2024-03-02T02:36:33;151.80;;;79.07;;
34134;SDS011;20410;55.578;12.968;2024-03-02T02:39:02;210.87;;;89.23;;
34134;SDS011;20410;55.578;12.968;2024-03-02T02:41:29;201.23;;;90.90;;
34134;SDS011;20410;55.578;12.968;2024-03-02T02:43:55;169.90;;;82.47;;
34134;SDS011;20410;55.578;12.968;2024-03-02T02:46:20;186.87;;;86.17;;
34134;SDS011;20410;55.578;12.968;2024-03-02T02:48:46;177.80;;;83.33;;
34134;SDS011;20410;55.578;12.968;2024-03-02T02:51:12;175.57;;;83.87;;
34134;SDS011;20410;55.578;12.968;2024-03-02T02:53:37;169.13;;;81.17;;
34134;SDS011;20410;55.578;12.968;2024-03-02T02:56:06;146.37;;;75.10;;
34134;SDS011;20410;55.578;12.968;2024-03-02T02:58:31;156.00;;;79.17;;
34134;SDS011;20410;55.578;12.968;2024-03-02T03:00:57;160.00;;;80.90;;
34134;SDS011;20410;55.578;12.968;2024-03-02T03:03:22;166.67;;;84.27;;
34134;SDS011;20410;55.578;12.968;2024-03-02T03:05:48;158.53;;;78.13;;
34134;SDS011;20410;55.578;12.968;2024-03-02T03:08:14;159.10;;;80.43;;
34134;SDS011;20410;55.578;12.968;2024-03-02T03:10:41;159.70;;;82.90;;
34134;SDS011;20410;55.578;12.968;2024-03-02T03:13:07;150.70;;;81.27;;
34134;SDS011;20410;55.578;12.968;2024-03-02T03:15:35;150.17;;;78.37;;
34134;SDS011;20410;55.578;12.968;2024-03-02T03:18:02;148.83;;;79.63;;
34134;SDS011;20410;55.578;12.968;2024-03-02T03:20:31;148.57;;;77.07;;
34134;SDS011;20410;55.578;12.968;2024-03-02T03:22:57;147.03;;;78.23;;
34134;SDS011;20410;55.578;12.968;2024-03-02T03:25:23;144.57;;;76.37;;
34134;SDS011;20410;55.578;12.968;2024-03-02T03:27:48;146.50;;;78.87;;
34134;SDS011;20410;55.578;12.968;2024-03-02T03:30:14;138.20;;;75.90;;
34134;SDS011;20410;55.578;12.968;2024-03-02T03:32:39;140.07;;;75.03;;
34134;SDS011;20410;55.578;12.968;2024-03-02T03:35:05;139.70;;;73.10;;
34134;SDS011;20410;55.578;12.968;2024-03-02T03:37:32;152.53;;;77.80;;
34134;SDS011;20410;55.578;12.968;2024-03-02T03:39:58;130.80;;;72.73;;
34134;SDS011;20410;55.578;12.968;2024-03-02T03:42:31;137.73;;;74.33;;
34134;SDS011;20410;55.578;12.968;2024-03-02T03:44:57;154.03;;;78.33;;
34134;SDS011;20410;55.578;12.968;2024-03-02T03:47:23;152.77;;;79.00;;
34134;SDS011;20410;55.578;12.968;2024-03-02T03:49:48;138.93;;;75.47;;
34134;SDS011;20410;55.578;12.968;2024-03-02T03:52:14;124.30;;;71.07;;
34134;SDS011;20410;55.578;12.968;2024-03-02T03:54:39;146.23;;;80.77;;
34134;SDS011;20410;55.578;12.968;2024-03-02T03:57:05;134.50;;;73.23;;
34134;SDS011;20410;55.578;12.968;2024-03-02T03:59:31;135.60;;;77.67;;
34134;SDS011;20410;55.578;12.968;2024-03-02T04:01:56;134.80;;;75.30;;
34134;SDS011;20410;55.578;12.968;2024-03-02T04:04:22;147.23;;;76.83;;
34134;SDS011;20410;55.578;12.968;2024-03-02T04:06:47;137.27;;;76.80;;
34134;SDS011;20410;55.578;12.968;2024-03-02T04:09:13;154.30;;;82.43;;
34134;SDS011;20410;55.578;12.968;2024-03-02T04:11:38;154.03;;;82.73;;
34134;SDS011;20410;55.578;12.968;2024-03-02T04:14:04;135.73;;;75.57;;
34134;SDS011;20410;55.578;12.968;2024-03-02T04:16:31;135.00;;;77.83;;
34134;SDS011;20410;55.578;12.968;2024-03-02T04:18:56;151.43;;;82.40;;
34134;SDS011;20410;55.578;12.968;2024-03-02T04:21:22;146.43;;;81.17;;
34134;SDS011;20410;55.578;12.968;2024-03-02T04:23:48;165.60;;;84.87;;
34134;SDS011;20410;55.578;12.968;2024-03-02T04:26:14;147.70;;;83.20;;
34134;SDS011;20410;55.578;12.968;2024-03-02T04:28:40;157.50;;;83.57;;
34134;SDS011;20410;55.578;12.968;2024-03-02T04:31:05;149.03;;;85.67;;
34134;SDS011;20410;55.578;12.968;2024-03-02T04:33:31;165.97;;;85.60;;
34134;SDS011;20410;55.578;12.968;2024-03-02T04:35:56;160.77;;;85.40;;
34134;SDS011;20410;55.578;12.968;2024-03-02T04:38:22;153.40;;;85.40;;
34134;SDS011;20410;55.578;12.968;2024-03-02T04:40:48;170.00;;;89.77;;
34134;SDS011;20410;55.578;12.968;2024-03-02T04:43:14;152.47;;;84.60;;
34134;SDS011;20410;55.578;12.968;2024-03-02T04:45:42;174.70;;;89.73;;
34134;SDS011;20410;55.578;12.968;2024-03-02T04:48:08;159.63;;;85.10;;
34134;SDS011;20410;55.578;12.968;2024-03-02T04:50:33;144.67;;;79.90;;
34134;SDS011;20410;55.578;12.968;2024-03-02T04:52:59;158.43;;;91.17;;
34134;SDS011;20410;55.578;12.968;2024-03-02T04:55:24;148.83;;;84.17;;
34134;SDS011;20410;55.578;12.968;2024-03-02T04:58:10;175.03;;;89.87;;
34134;SDS011;20410;55.578;12.968;2024-03-02T05:00:36;155.00;;;84.07;;
34134;SDS011;20410;55.578;12.968;2024-03-02T05:03:02;174.73;;;90.27;;
34134;SDS011;20410;55.578;12.968;2024-03-02T05:05:28;176.77;;;89.23;;
34134;SDS011;20410;55.578;12.968;2024-03-02T05:07:54;185.83;;;94.40;;
34134;SDS011;20410;55.578;12.968;2024-03-02T05:10:19;180.13;;;90.00;;
34134;SDS011;20410;55.578;12.968;2024-03-02T05:12:45;177.50;;;90.20;;
34134;SDS011;20410;55.578;12.968;2024-03-02T05:15:11;157.40;;;81.83;;
34134;SDS011;20410;55.578;12.968;2024-03-02T05:17:39;176.97;;;89.83;;
34134;SDS011;20410;55.578;12.968;2024-03-02T05:20:06;192.37;;;97.60;;
34134;SDS011;20410;55.578;12.968;2024-03-02T05:22:35;195.03;;;92.37;;
34134;SDS011;20410;55.578;12.968;2024-03-02T05:25:05;180.70;;;91.47;;
34134;SDS011;20410;55.578;12.968;2024-03-02T05:27:32;190.17;;;93.23;;
34134;SDS011;20410;55.578;12.968;2024-03-02T05:29:58;189.63;;;93.87;;
34134;SDS011;20410;55.578;12.968;2024-03-02T05:32:23;208.50;;;98.63;;
34134;SDS011;20410;55.578;12.968;2024-03-02T05:34:54;206.47;;;99.93;;
34134;SDS011;20410;55.578;12.968;2024-03-02T05:37:20;192.80;;;95.17;;
34134;SDS011;20410;55.578;12.968;2024-03-02T05:39:45;209.80;;;99.70;;
34134;SDS011;20410;55.578;12.968;2024-03-02T05:42:11;230.30;;;102.13;;
34134;SDS011;20410;55.578;12.968;2024-03-02T05:44:36;219.80;;;103.07;;
34134;SDS011;20410;55.578;12.968;2024-03-02T05:47:02;189.43;;;94.77;;
34134;SDS011;20410;55.578;12.968;2024-03-02T05:49:28;225.50;;;104.30;;
34134;SDS011;20410;55.578;12.968;2024-03-02T05:51:54;215.63;;;101.77;;
34134;SDS011;20410;55.578;12.968;2024-03-02T05:54:20;190.53;;;93.63;;
34134;SDS011;20410;55.578;12.968;2024-03-02T05:56:45;174.83;;;92.30;;
34134;SDS011;20410;55.578;12.968;2024-03-02T05:59:11;190.23;;;98.40;;
34134;SDS011;20410;55.578;12.968;2024-03-02T06:01:46;173.83;;;91.53;;
34134;SDS011;20410;55.578;12.968;2024-03-02T06:04:13;162.60;;;86.90;;
34134;SDS011;20410;55.578;12.968;2024-03-02T06:06:42;178.47;;;90.83;;
34134;SDS011;20410;55.578;12.968;2024-03-02T06:09:08;160.67;;;84.70;;
34134;SDS011;20410;55.578;12.968;2024-03-02T06:11:37;148.27;;;83.73;;
34134;SDS011;20410;55.578;12.968;2024-03-02T06:14:04;158.83;;;84.83;;
34134;SDS011;20410;55.578;12.968;2024-03-02T06:16:31;143.53;;;80.93;;
34134;SDS011;20410;55.578;12.968;2024-03-02T06:18:57;130.83;;;75.87;;
34134;SDS011;20410;55.578;12.968;2024-03-02T06:21:26;146.37;;;84.93;;
34134;SDS011;20410;55.578;12.968;2024-03-02T06:23:52;146.27;;;84.07;;
34134;SDS011;20410;55.578;12.968;2024-03-02T06:26:18;130.33;;;75.47;;
34134;SDS011;20410;55.578;12.968;2024-03-02T06:28:44;137.80;;;79.13;;
34134;SDS011;20410;55.578;12.968;2024-03-02T06:31:10;123.30;;;75.07;;
34134;SDS011;20410;55.578;12.968;2024-03-02T06:33:36;123.73;;;77.00;;
34134;SDS011;20410;55.578;12.968;2024-03-02T06:36:01;125.17;;;74.87;;
34134;SDS011;20410;55.578;12.968;2024-03-02T06:38:27;110.93;;;69.20;;
34134;SDS011;20410;55.578;12.968;2024-03-02T06:40:53;102.57;;;66.03;;
34134;SDS011;20410;55.578;12.968;2024-03-02T06:43:20;107.03;;;67.00;;
34134;SDS011;20410;55.578;12.968;2024-03-02T06:45:52;99.33;;;63.83;;
34134;SDS011;20410;55.578;12.968;2024-03-02T06:48:18;88.73;;;60.57;;
34134;SDS011;20410;55.578;12.968;2024-03-02T06:50:48;90.57;;;60.97;;
34134;SDS011;20410;55.578;12.968;2024-03-02T06:53:14;91.87;;;62.03;;
34134;SDS011;20410;55.578;12.968;2024-03-02T06:55:44;92.63;;;62.87;;
34134;SDS011;20410;55.578;12.968;2024-03-02T06:58:13;92.40;;;62.17;;
34134;SDS011;20410;55.578;12.968;2024-03-02T07:00:42;89.73;;;62.47;;
34134;SDS011;20410;55.578;12.968;2024-03-02T07:03:09;84.77;;;60.57;;
34134;SDS011;20410;55.578;12.968;2024-03-02T07:05:34;94.97;;;63.20;;
34134;SDS011;20410;55.578;12.968;2024-03-02T07:08:00;82.63;;;60.43;;
34134;SDS011;20410;55.578;12.968;2024-03-02T07:10:26;86.83;;;61.93;;
34134;SDS011;20410;55.578;12.968;2024-03-02T07:12:52;85.37;;;60.63;;
34134;SDS011;20410;55.578;12.968;2024-03-02T07:15:17;90.80;;;63.03;;
34134;SDS011;20410;55.578;12.968;2024-03-02T07:17:52;85.70;;;59.60;;
34134;SDS011;20410;55.578;12.968;2024-03-02T07:20:18;99.17;;;63.50;;
34134;SDS011;20410;55.578;12.968;2024-03-02T07:22:43;75.17;;;54.40;;
34134;SDS011;20410;55.578;12.968;2024-03-02T07:25:09;68.83;;;52.83;;
34134;SDS011;20410;55.578;12.968;2024-03-02T07:27:34;79.50;;;57.67;;
34134;SDS011;20410;55.578;12.968;2024-03-02T07:30:01;76.20;;;57.30;;
34134;SDS011;20410;55.578;12.968;2024-03-02T07:32:30;91.50;;;61.63;;
34134;SDS011;20410;55.578;12.968;2024-03-02T07:34:56;79.10;;;55.13;;
34134;SDS011;20410;55.578;12.968;2024-03-02T07:37:22;81.77;;;58.60;;
34134;SDS011;20410;55.578;12.968;2024-03-02T07:39:48;75.17;;;55.97;;
34134;SDS011;20410;55.578;12.968;2024-03-02T07:42:15;76.23;;;56.10;;
34134;SDS011;20410;55.578;12.968;2024-03-02T07:44:41;78.00;;;56.73;;
34134;SDS011;20410;55.578;12.968;2024-03-02T07:47:07;77.50;;;57.73;;
34134;SDS011;20410;55.578;12.968;2024-03-02T07:49:32;73.73;;;55.37;;
34134;SDS011;20410;55.578;12.968;2024-03-02T07:51:58;76.57;;;56.27;;
34134;SDS011;20410;55.578;12.968;2024-03-02T07:54:24;74.00;;;54.00;;
34134;SDS011;20410;55.578;12.968;2024-03-02T07:56:49;76.40;;;54.83;;
34134;SDS011;20410;55.578;12.968;2024-03-02T07:59:15;79.70;;;54.73;;
34134;SDS011;20410;55.578;12.968;2024-03-02T08:01:41;86.07;;;58.17;;
34134;SDS011;20410;55.578;12.968;2024-03-02T08:04:06;72.30;;;52.63;;
34134;SDS011;20410;55.578;12.968;2024-03-02T08:06:32;86.57;;;57.30;;
34134;SDS011;20410;55.578;12.968;2024-03-02T08:08:58;76.67;;;54.10;;
34134;SDS011;20410;55.578;12.968;2024-03-02T08:11:25;72.37;;;52.33;;
34134;SDS011;20410;55.578;12.968;2024-03-02T08:13:52;68.20;;;52.10;;
34134;SDS011;20410;55.578;12.968;2024-03-02T08:16:19;68.70;;;50.60;;
34134;SDS011;20410;55.578;12.968;2024-03-02T08:18:46;58.60;;;47.13;;
34134;SDS011;20410;55.578;12.968;2024-03-02T08:21:13;63.67;;;47.30;;
34134;SDS011;20410;55.578;12.968;2024-03-02T08:23:39;64.47;;;48.67;;
34134;SDS011;20410;55.578;12.968;2024-03-02T08:26:06;60.07;;;47.60;;
34134;SDS011;20410;55.578;12.968;2024-03-02T08:28:32;59.57;;;45.10;;
34134;SDS011;20410;55.578;12.968;2024-03-02T08:30:58;56.93;;;44.97;;
34134;SDS011;20410;55.578;12.968;2024-03-02T08:33:23;52.40;;;42.00;;
34134;SDS011;20410;55.578;12.968;2024-03-02T08:35:49;49.27;;;39.23;;
34134;SDS011;20410;55.578;12.968;2024-03-02T08:38:15;47.63;;;39.60;;
34134;SDS011;20410;55.578;12.968;2024-03-02T08:40:40;43.13;;;35.63;;
34134;SDS011;20410;55.578;12.968;2024-03-02T08:43:06;44.23;;;37.13;;
34134;SDS011;20410;55.578;12.968;2024-03-02T08:45:32;38.80;;;34.33;;
34134;SDS011;20410;55.578;12.968;2024-03-02T08:47:59;38.03;;;32.53;;
34134;SDS011;20410;55.578;12.968;2024-03-02T08:50:25;40.50;;;34.30;;
34134;SDS011;20410;55.578;12.968;2024-03-02T08:52:50;39.23;;;33.03;;
34134;SDS011;20410;55.578;12.968;2024-03-02T08:55:16;40.53;;;33.60;;
34134;SDS011;20410;55.578;12.968;2024-03-02T08:57:41;45.00;;;36.53;;
34134;SDS011;20410;55.578;12.968;2024-03-02T09:00:07;48.23;;;38.27;;
34134;SDS011;20410;55.578;12.968;2024-03-02T09:02:33;53.47;;;40.03;;
34134;SDS011;20410;55.578;12.968;2024-03-02T09:04:59;60.33;;;42.57;;
34134;SDS011;20410;55.578;12.968;2024-03-02T09:07:25;50.73;;;37.83;;
34134;SDS011;20410;55.578;12.968;2024-03-02T09:09:50;63.43;;;45.40;;
34134;SDS011;20410;55.578;12.968;2024-03-02T09:12:17;62.43;;;43.53;;
34134;SDS011;20410;55.578;12.968;2024-03-02T09:14:43;68.73;;;45.43;;
34134;SDS011;20410;55.578;12.968;2024-03-02T09:17:09;65.97;;;45.90;;
34134;SDS011;20410;55.578;12.968;2024-03-02T09:19:36;63.83;;;46.93;;
34134;SDS011;20410;55.578;12.968;2024-03-02T09:22:02;66.87;;;46.87;;
34134;SDS011;20410;55.578;12.968;2024-03-02T09:24:30;81.43;;;51.60;;
34134;SDS011;20410;55.578;12.968;2024-03-02T09:26:56;80.00;;;51.47;;
34134;SDS011;20410;55.578;12.968;2024-03-02T09:29:22;81.77;;;54.20;;
34134;SDS011;20410;55.578;12.968;2024-03-02T09:31:47;80.23;;;53.20;;
34134;SDS011;20410;55.578;12.968;2024-03-02T09:34:14;88.37;;;54.30;;
34134;SDS011;20410;55.578;12.968;2024-03-02T09:36:40;87.07;;;54.97;;
34134;SDS011;20410;55.578;12.968;2024-03-02T09:39:07;85.57;;;56.83;;
34134;SDS011;20410;55.578;12.968;2024-03-02T09:41:34;88.47;;;54.83;;
34134;SDS011;20410;55.578;12.968;2024-03-02T09:44:04;82.70;;;53.57;;
34134;SDS011;20410;55.578;12.968;2024-03-02T09:46:30;91.27;;;58.10;;
34134;SDS011;20410;55.578;12.968;2024-03-02T09:48:56;93.83;;;59.63;;
34134;SDS011;20410;55.578;12.968;2024-03-02T09:51:22;84.87;;;55.37;;
34134;SDS011;20410;55.578;12.968;2024-03-02T09:53:48;89.33;;;55.97;;
34134;SDS011;20410;55.578;12.968;2024-03-02T09:56:14;94.93;;;58.70;;
34134;SDS011;20410;55.578;12.968;2024-03-02T09:58:41;92.20;;;59.17;;
34134;SDS011;20410;55.578;12.968;2024-03-02T10:01:07;94.00;;;58.53;;
34134;SDS011;20410;55.578;12.968;2024-03-02T10:03:35;102.50;;;63.03;;
34134;SDS011;20410;55.578;12.968;2024-03-02T10:06:21;95.17;;;60.33;;
34134;SDS011;20410;55.578;12.968;2024-03-02T10:08:48;101.60;;;61.17;;
34134;SDS011;20410;55.578;12.968;2024-03-02T10:14:12;105.47;;;61.87;;
34134;SDS011;20410;55.578;12.968;2024-03-02T10:16:39;116.50;;;62.93;;
34134;SDS011;20410;55.578;12.968;2024-03-02T10:19:21;116.73;;;64.43;;
34134;SDS011;20410;55.578;12.968;2024-03-02T10:21:48;134.87;;;71.23;;
34134;SDS011;20410;55.578;12.968;2024-03-02T10:24:18;118.40;;;65.80;;
34134;SDS011;20410;55.578;12.968;2024-03-02T10:26:45;111.10;;;63.27;;
34134;SDS011;20410;55.578;12.968;2024-03-02T10:29:10;117.33;;;64.37;;
34134;SDS011;20410;55.578;12.968;2024-03-02T10:31:37;121.73;;;64.47;;
34134;SDS011;20410;55.578;12.968;2024-03-02T10:34:04;131.97;;;69.30;;
34134;SDS011;20410;55.578;12.968;2024-03-02T10:36:31;136.77;;;69.00;;
34134;SDS011;20410;55.578;12.968;2024-03-02T10:38:58;120.70;;;66.20;;
34134;SDS011;20410;55.578;12.968;2024-03-02T10:41:24;125.27;;;65.30;;
34134;SDS011;20410;55.578;12.968;2024-03-02T10:43:54;132.40;;;64.80;;
34134;SDS011;20410;55.578;12.968;2024-03-02T10:46:29;125.53;;;64.67;;
34134;SDS011;20410;55.578;12.968;2024-03-02T10:48:56;135.47;;;69.17;;
34134;SDS011;20410;55.578;12.968;2024-03-02T10:51:26;137.13;;;66.87;;
34134;SDS011;20410;55.578;12.968;2024-03-02T10:53:55;127.33;;;65.77;;
34134;SDS011;20410;55.578;12.968;2024-03-02T11:00:05;128.23;;;63.17;;
34134;SDS011;20410;55.578;12.968;2024-03-02T11:12:36;147.07;;;63.90;;
34134;SDS011;20410;55.578;12.968;2024-03-02T11:15:45;136.30;;;63.90;;
34134;SDS011;20410;55.578;12.968;2024-03-02T11:18:17;142.30;;;64.50;;
34134;SDS011;20410;55.578;12.968;2024-03-02T11:20:47;129.83;;;63.73;;
34134;SDS011;20410;55.578;12.968;2024-03-02T11:23:13;124.87;;;58.27;;
34134;SDS011;20410;55.578;12.968;2024-03-02T11:25:40;123.57;;;58.30;;
34134;SDS011;20410;55.578;12.968;2024-03-02T11:28:06;118.07;;;60.00;;
34134;SDS011;20410;55.578;12.968;2024-03-02T11:33:05;143.10;;;63.07;;
34134;SDS011;20410;55.578;12.968;2024-03-02T11:35:33;127.53;;;62.37;;
34134;SDS011;20410;55.578;12.968;2024-03-02T11:37:59;142.30;;;64.30;;
34134;SDS011;20410;55.578;12.968;2024-03-02T11:40:28;118.93;;;59.10;;
34134;SDS011;20410;55.578;12.968;2024-03-02T11:42:54;144.53;;;66.77;;
34134;SDS011;20410;55.578;12.968;2024-03-02T11:45:23;135.90;;;64.77;;
34134;SDS011;20410;55.578;12.968;2024-03-02T11:47:50;117.93;;;60.57;;
34134;SDS011;20410;55.578;12.968;2024-03-02T11:50:28;132.63;;;65.70;;
34134;SDS011;20410;55.578;12.968;2024-03-02T11:52:53;109.80;;;58.43;;
34134;SDS011;20410;55.578;12.968;2024-03-02T11:55:21;133.10;;;65.47;;
34134;SDS011;20410;55.578;12.968;2024-03-02T11:57:47;117.30;;;61.13;;
34134;SDS011;20410;55.578;12.968;2024-03-02T12:00:18;119.50;;;61.40;;
34134;SDS011;20410;55.578;12.968;2024-03-02T12:02:45;136.00;;;67.87;;
34134;SDS011;20410;55.578;12.968;2024-03-02T12:05:14;138.30;;;65.50;;
34134;SDS011;20410;55.578;12.968;2024-03-02T12:07:41;130.57;;;64.40;;
34134;SDS011;20410;55.578;12.968;2024-03-02T12:10:08;131.10;;;64.37;;
34134;SDS011;20410;55.578;12.968;2024-03-02T12:12:34;124.83;;;61.23;;
34134;SDS011;20410;55.578;12.968;2024-03-02T12:14:59;117.67;;;62.50;;
34134;SDS011;20410;55.578;12.968;2024-03-02T12:17:25;131.17;;;65.43;;
34134;SDS011;20410;55.578;12.968;2024-03-02T12:19:51;110.97;;;60.93;;
34134;SDS011;20410;55.578;12.968;2024-03-02T12:22:17;118.83;;;62.27;;
34134;SDS011;20410;55.578;12.968;2024-03-02T12:24:44;135.40;;;66.97;;
34134;SDS011;20410;55.578;12.968;2024-03-02T12:27:13;133.43;;;64.97;;
34134;SDS011;20410;55.578;12.968;2024-03-02T12:29:40;150.77;;;66.50;;
34134;SDS011;20410;55.578;12.968;2024-03-02T12:32:08;124.77;;;61.33;;
34134;SDS011;20410;55.578;12.968;2024-03-02T12:34:37;133.40;;;63.90;;
34134;SDS011;20410;55.578;12.968;2024-03-02T12:38:01;127.60;;;63.67;;
34134;SDS011;20410;55.578;12.968;2024-03-02T12:52:23;130.33;;;61.40;;
34134;SDS011;20410;55.578;12.968;2024-03-02T12:55:19;120.83;;;60.70;;
34134;SDS011;20410;55.578;12.968;2024-03-02T13:01:56;140.50;;;64.67;;
34134;SDS011;20410;55.578;12.968;2024-03-02T13:08:40;128.77;;;62.67;;
34134;SDS011;20410;55.578;12.968;2024-03-02T13:11:15;135.13;;;63.40;;
34134;SDS011;20410;55.578;12.968;2024-03-02T13:14:40;132.90;;;61.13;;
34134;SDS011;20410;55.578;12.968;2024-03-02T13:17:07;138.37;;;63.30;;
34134;SDS011;20410;55.578;12.968;2024-03-02T13:20:11;135.50;;;62.07;;
34134;SDS011;20410;55.578;12.968;2024-03-02T13:22:57;125.20;;;60.03;;
34134;SDS011;20410;55.578;12.968;2024-03-02T13:25:28;135.23;;;61.80;;
34134;SDS011;20410;55.578;12.968;2024-03-02T13:28:03;140.83;;;60.37;;
34134;SDS011;20410;55.578;12.968;2024-03-02T13:30:29;142.60;;;61.60;;
34134;SDS011;20410;55.578;12.968;2024-03-02T13:32:55;137.00;;;61.37;;
34134;SDS011;20410;55.578;12.968;2024-03-02T13:35:36;150.23;;;61.93;;
34134;SDS011;20410;55.578;12.968;2024-03-02T13:38:04;162.70;;;66.63;;
34134;SDS011;20410;55.578;12.968;2024-03-02T13:40:55;137.07;;;63.57;;
34134;SDS011;20410;55.578;12.968;2024-03-02T13:43:21;145.50;;;64.77;;
34134;SDS011;20410;55.578;12.968;2024-03-02T13:45:48;142.53;;;67.37;;
34134;SDS011;20410;55.578;12.968;2024-03-02T13:48:15;126.83;;;62.77;;
34134;SDS011;20410;55.578;12.968;2024-03-02T13:50:53;131.60;;;64.60;;
34134;SDS011;20410;55.578;12.968;2024-03-02T13:56:21;140.73;;;67.77;;
34134;SDS011;20410;55.578;12.968;2024-03-02T14:02:41;134.50;;;67.73;;
34134;SDS011;20410;55.578;12.968;2024-03-02T14:05:45;124.43;;;63.57;;
34134;SDS011;20410;55.578;12.968;2024-03-02T14:08:27;151.87;;;67.23;;
34134;SDS011;20410;55.578;12.968;2024-03-02T14:11:25;160.80;;;71.30;;
34134;SDS011;20410;55.578;12.968;2024-03-02T14:14:08;130.37;;;66.03;;
34134;SDS011;20410;55.578;12.968;2024-03-02T14:17:02;159.87;;;70.73;;
34134;SDS011;20410;55.578;12.968;2024-03-02T14:22:47;166.30;;;67.10;;
34134;SDS011;20410;55.578;12.968;2024-03-02T14:25:22;153.97;;;64.50;;
34134;SDS011;20410;55.578;12.968;2024-03-02T14:28:07;147.80;;;67.83;;
34134;SDS011;20410;55.578;12.968;2024-03-02T14:30:49;149.23;;;66.27;;
34134;SDS011;20410;55.578;12.968;2024-03-02T14:33:38;191.03;;;70.47;;
34134;SDS011;20410;55.578;12.968;2024-03-02T14:36:33;156.20;;;67.63;;
34134;SDS011;20410;55.578;12.968;2024-03-02T14:39:50;145.57;;;67.60;;
34134;SDS011;20410;55.578;12.968;2024-03-02T14:45:22;148.10;;;66.83;;
34134;SDS011;20410;55.578;12.968;2024-03-02T14:47:49;165.97;;;68.83;;
34134;SDS011;20410;55.578;12.968;2024-03-02T14:50:33;180.97;;;68.87;;
34134;SDS011;20410;55.578;12.968;2024-03-02T14:56:47;149.50;;;65.87;;
34134;SDS011;20410;55.578;12.968;2024-03-02T14:59:47;133.30;;;65.47;;
34134;SDS011;20410;55.578;12.968;2024-03-02T15:02:45;265.73;;;80.80;;
34134;SDS011;20410;55.578;12.968;2024-03-02T15:05:10;116.47;;;60.77;;
34134;SDS011;20410;55.578;12.968;2024-03-02T15:08:16;133.93;;;64.70;;